createdAt,value
2022-08-25T00:00:08.297Z,990.31
2022-08-25T00:01:12.686Z,990.3
2022-08-25T00:02:12.309Z,990.29
2022-08-25T00:03:15.806Z,990.33
2022-08-25T00:04:18.573Z,990.27
2022-08-25T00:05:18.794Z,990.28
2022-08-25T00:06:18.481Z,990.28
2022-08-25T00:07:21.276Z,990.26
2022-08-25T00:08:24.123Z,990.23
2022-08-25T00:09:26.952Z,990.25
2022-08-25T00:10:30.101Z,990.27
2022-08-25T00:11:32.995Z,990.24
2022-08-25T00:12:35.897Z,990.29
2022-08-25T00:13:38.735Z,990.25
2022-08-25T00:14:41.541Z,990.26
2022-08-25T00:15:45.097Z,990.27
2022-08-25T00:16:44.566Z,990.27
2022-08-25T00:17:47.336Z,990.27
2022-08-25T00:18:50.095Z,990.23
2022-08-25T00:19:52.922Z,990.25
2022-08-25T00:20:55.704Z,990.24
2022-08-25T00:21:58.503Z,990.22
2022-08-25T00:23:01.280Z,990.24
2022-08-25T00:24:04.031Z,990.24
2022-08-25T00:25:06.812Z,990.28
2022-08-25T00:26:12.211Z,990.27
2022-08-25T00:27:11.504Z,990.29
2022-08-25T00:28:14.701Z,990.25
2022-08-25T00:29:17.524Z,990.33
2022-08-25T00:30:20.331Z,990.29
2022-08-25T00:31:23.415Z,990.3
2022-08-25T00:32:23.198Z,990.27
2022-08-25T00:33:25.964Z,990.24
2022-08-25T00:34:28.752Z,990.23
2022-08-25T00:35:31.880Z,990.27
2022-08-25T00:36:34.666Z,990.27
2022-08-25T00:37:37.465Z,990.29
2022-08-25T00:38:40.501Z,990.28
2022-08-25T00:39:43.346Z,990.24
2022-08-25T00:40:46.116Z,990.29
2022-08-25T00:41:48.876Z,990.25
2022-08-25T00:42:51.658Z,990.24
2022-08-25T00:43:54.453Z,990.27
2022-08-25T00:44:58.023Z,990.27
2022-08-25T00:45:57.605Z,990.26
2022-08-25T00:47:00.438Z,990.27
2022-08-25T00:48:04.288Z,990.26
2022-08-25T00:49:03.756Z,990.23
2022-08-25T00:50:08.969Z,990.27
2022-08-25T00:51:08.258Z,990.28
2022-08-25T00:52:11.049Z,990.24
2022-08-25T00:53:13.827Z,990.26
2022-08-25T00:54:16.604Z,990.25
2022-08-25T00:55:19.451Z,990.25
2022-08-25T00:56:22.753Z,990.24
2022-08-25T00:57:35.298Z,990.27
2022-08-25T00:58:27.672Z,990.25
2022-08-25T00:59:30.451Z,990.23
2022-08-25T01:00:33.220Z,990.21
2022-08-25T01:01:36.440Z,990.24
2022-08-25T01:02:39.679Z,990.23
2022-08-25T01:03:42.528Z,990.21
2022-08-25T01:04:49.467Z,990.2
2022-08-25T01:05:49.180Z,990.18
2022-08-25T01:06:51.963Z,990.16
2022-08-25T01:07:59.978Z,990.21
2022-08-25T01:08:55.908Z,990.14
2022-08-25T01:09:58.680Z,990.17
2022-08-25T01:11:01.481Z,990.18
2022-08-25T01:12:04.270Z,990.16
2022-08-25T01:13:17.089Z,990.13
2022-08-25T01:14:09.452Z,990.12
2022-08-25T01:15:12.237Z,990.14
2022-08-25T01:16:15.317Z,990.13
2022-08-25T01:17:18.163Z,990.09
2022-08-25T01:18:20.926Z,990.1
2022-08-25T01:19:23.730Z,990.06
2022-08-25T01:20:30.660Z,990.07
2022-08-25T01:21:29.953Z,990.06
2022-08-25T01:22:32.715Z,990.07
2022-08-25T01:23:35.477Z,990.03
2022-08-25T01:24:38.262Z,990.03
2022-08-25T01:25:41.027Z,990.03
2022-08-25T01:26:43.803Z,990.06
2022-08-25T01:27:50.363Z,990.04
2022-08-25T01:28:49.636Z,989.99
2022-08-25T01:29:52.425Z,990.02
2022-08-25T01:30:58.836Z,990.04
2022-08-25T01:31:55.925Z,990.04
2022-08-25T01:32:58.694Z,990.06
2022-08-25T01:34:01.459Z,990.06
2022-08-25T01:35:04.238Z,990.07
2022-08-25T01:36:06.989Z,990.05
2022-08-25T01:37:14.906Z,990.09
2022-08-25T01:38:10.714Z,990.1
2022-08-25T01:39:13.479Z,990.11
2022-08-25T01:40:18.293Z,990.08
2022-08-25T01:41:16.384Z,990.13
2022-08-25T01:42:19.154Z,990.11
2022-08-25T01:43:21.929Z,990.12
2022-08-25T01:44:24.692Z,990.16
2022-08-25T01:45:29.367Z,990.15
2022-08-25T01:46:31.098Z,990.14
2022-08-25T01:47:29.015Z,990.13
2022-08-25T01:48:31.770Z,990.07
2022-08-25T01:49:34.531Z,990.11
2022-08-25T01:50:37.292Z,990.12
2022-08-25T01:51:40.100Z,990.04
2022-08-25T01:52:42.886Z,990.05
2022-08-25T01:53:45.678Z,990.07
2022-08-25T01:54:48.466Z,990.06
2022-08-25T01:55:54.552Z,990.03
2022-08-25T01:56:53.895Z,990.02
2022-08-25T01:57:56.710Z,990.04
2022-08-25T01:58:59.478Z,990.01
2022-08-25T02:00:02.230Z,990.03
2022-08-25T02:01:19.586Z,990.04
2022-08-25T02:02:20.824Z,990.02
2022-08-25T02:03:27.130Z,990
2022-08-25T02:04:17.714Z,990.01
2022-08-25T02:05:09.107Z,990.01
2022-08-25T02:06:12.046Z,990.03
2022-08-25T02:07:14.840Z,989.98
2022-08-25T02:08:17.641Z,990
2022-08-25T02:09:20.439Z,990.01
2022-08-25T02:10:23.534Z,990.02
2022-08-25T02:11:26.333Z,990.04
2022-08-25T02:12:29.099Z,990.03
2022-08-25T02:13:32.870Z,990.08
2022-08-25T02:14:32.172Z,990.05
2022-08-25T02:15:34.968Z,990.05
2022-08-25T02:16:38.143Z,990.09
2022-08-25T02:17:41.010Z,990.12
2022-08-25T02:18:43.783Z,990.1
2022-08-25T02:19:46.627Z,990.12
2022-08-25T02:20:49.421Z,990.11
2022-08-25T02:21:52.215Z,990.13
2022-08-25T02:22:57.403Z,990.14
2022-08-25T02:23:56.725Z,990.13
2022-08-25T02:24:59.494Z,990.12
2022-08-25T02:26:02.297Z,990.13
2022-08-25T02:27:05.102Z,990.1
2022-08-25T02:28:07.913Z,990.12
2022-08-25T02:29:10.694Z,990.07
2022-08-25T02:30:13.465Z,990.12
2022-08-25T02:31:16.544Z,990.11
2022-08-25T02:32:19.407Z,990.1
2022-08-25T02:33:22.163Z,990.08
2022-08-25T02:34:24.951Z,990.11
2022-08-25T02:35:28.205Z,990.08
2022-08-25T02:36:30.957Z,990.05
2022-08-25T02:37:33.755Z,990.07
2022-08-25T02:38:36.519Z,990.05
2022-08-25T02:39:39.290Z,990.03
2022-08-25T02:40:42.057Z,990.05
2022-08-25T02:41:44.864Z,990.03
2022-08-25T02:42:47.648Z,990.01
2022-08-25T02:43:50.460Z,990.09
2022-08-25T02:44:53.246Z,990.09
2022-08-25T02:45:56.304Z,990.06
2022-08-25T02:46:59.227Z,990.06
2022-08-25T02:48:02.440Z,990.04
2022-08-25T02:49:05.386Z,990.07
2022-08-25T02:50:08.179Z,990.01
2022-08-25T02:51:10.952Z,990
2022-08-25T02:52:13.709Z,990
2022-08-25T02:53:16.483Z,989.98
2022-08-25T02:54:19.264Z,989.97
2022-08-25T02:55:22.061Z,989.97
2022-08-25T02:56:24.957Z,989.99
2022-08-25T02:57:27.728Z,989.98
2022-08-25T02:58:30.486Z,989.99
2022-08-25T02:59:33.266Z,989.99
2022-08-25T03:00:36.058Z,989.98
2022-08-25T03:01:45.882Z,990.04
2022-08-25T03:02:41.800Z,990.05
2022-08-25T03:03:45.163Z,990.06
2022-08-25T03:04:48.317Z,990
2022-08-25T03:05:51.170Z,990.01
2022-08-25T03:06:53.981Z,990.02
2022-08-25T03:07:58.114Z,990.01
2022-08-25T03:08:57.420Z,990.02
2022-08-25T03:10:00.256Z,990.02
2022-08-25T03:11:03.021Z,990
2022-08-25T03:12:05.801Z,989.96
2022-08-25T03:13:09.613Z,989.96
2022-08-25T03:14:08.915Z,989.98
2022-08-25T03:15:13.529Z,989.94
2022-08-25T03:16:13.701Z,989.96
2022-08-25T03:17:13.178Z,989.94
2022-08-25T03:18:17.443Z,989.94
2022-08-25T03:19:16.754Z,989.99
2022-08-25T03:20:19.537Z,989.98
2022-08-25T03:21:22.305Z,989.99
2022-08-25T03:22:28.535Z,989.97
2022-08-25T03:23:27.878Z,990.02
2022-08-25T03:24:30.680Z,990.03
2022-08-25T03:25:33.431Z,990.01
2022-08-25T03:26:36.198Z,990.04
2022-08-25T03:27:38.992Z,990.05
2022-08-25T03:28:41.793Z,990.02
2022-08-25T03:29:44.570Z,990.04
2022-08-25T03:30:56.443Z,990
2022-08-25T03:31:49.097Z,990.01
2022-08-25T03:32:51.952Z,989.98
2022-08-25T03:33:54.723Z,989.96
2022-08-25T03:34:57.490Z,990.02
2022-08-25T03:36:00.251Z,990.02
2022-08-25T03:37:03.011Z,990.04
2022-08-25T03:38:07.228Z,990.07
2022-08-25T03:39:06.982Z,990.06
2022-08-25T03:40:17.025Z,990.08
2022-08-25T03:41:09.873Z,990.07
2022-08-25T03:42:12.644Z,990.08
2022-08-25T03:43:15.423Z,990.05
2022-08-25T03:44:18.224Z,990.05
2022-08-25T03:45:21.010Z,990.04
2022-08-25T03:46:23.791Z,990.05
2022-08-25T03:47:26.552Z,990.05
2022-08-25T03:48:29.337Z,990.04
2022-08-25T03:49:34.867Z,990.03
2022-08-25T03:50:34.307Z,990.06
2022-08-25T03:51:37.048Z,990.04
2022-08-25T03:52:44.101Z,990.03
2022-08-25T03:53:39.918Z,990.01
2022-08-25T03:54:42.684Z,989.99
2022-08-25T03:55:45.446Z,989.97
2022-08-25T03:56:48.223Z,989.98
2022-08-25T03:57:50.982Z,989.95
2022-08-25T03:58:53.743Z,989.97
2022-08-25T03:59:56.534Z,989.94
2022-08-25T04:00:59.588Z,989.98
2022-08-25T04:02:02.974Z,989.91
2022-08-25T04:03:05.877Z,989.94
2022-08-25T04:04:08.651Z,989.93
2022-08-25T04:05:11.458Z,989.94
2022-08-25T04:06:15.289Z,989.91
2022-08-25T04:07:14.645Z,989.9
2022-08-25T04:08:19.838Z,989.9
2022-08-25T04:09:19.142Z,989.85
2022-08-25T04:10:21.943Z,989.85
2022-08-25T04:11:24.819Z,989.91
2022-08-25T04:12:27.594Z,989.82
2022-08-25T04:13:30.383Z,989.85
2022-08-25T04:14:33.163Z,989.86
2022-08-25T04:15:35.932Z,989.86
2022-08-25T04:16:39.008Z,989.88
2022-08-25T04:17:41.840Z,989.88
2022-08-25T04:18:44.636Z,989.87
2022-08-25T04:19:47.417Z,989.9
2022-08-25T04:20:50.201Z,989.88
2022-08-25T04:21:57.533Z,989.86
2022-08-25T04:22:53.395Z,989.9
2022-08-25T04:23:56.201Z,989.89
2022-08-25T04:24:59.103Z,989.87
2022-08-25T04:26:01.878Z,989.91
2022-08-25T04:27:04.676Z,989.97
2022-08-25T04:28:07.905Z,989.96
2022-08-25T04:29:10.704Z,990
2022-08-25T04:30:13.502Z,990.05
2022-08-25T04:31:16.562Z,990.02
2022-08-25T04:32:19.404Z,990.07
2022-08-25T04:33:22.170Z,990.03
2022-08-25T04:34:31.804Z,990.08
2022-08-25T04:35:30.093Z,990.06
2022-08-25T05:27:52.637Z,989.88
2022-08-25T05:28:55.447Z,989.87
2022-08-25T05:29:58.306Z,989.8
2022-08-25T05:31:01.123Z,989.85
2022-08-25T05:32:04.242Z,989.88
2022-08-25T05:33:07.202Z,989.86
2022-08-25T05:34:10.005Z,989.94
2022-08-25T05:35:12.832Z,989.94
2022-08-25T05:36:15.651Z,989.95
2022-08-25T05:37:18.515Z,989.96
2022-08-25T05:38:21.318Z,989.94
2022-08-25T05:39:27.237Z,989.98
2022-08-25T05:40:26.986Z,989.99
2022-08-25T05:41:26.666Z,989.95
2022-08-25T06:22:34.049Z,989.72
2022-08-25T06:23:36.873Z,989.69
2022-08-25T06:24:39.689Z,989.71
2022-08-25T06:25:42.505Z,989.72
2022-08-25T06:26:45.342Z,989.73
2022-08-25T06:27:48.128Z,989.74
2022-08-25T06:28:50.947Z,989.74
2022-08-25T06:30:00.482Z,989.73
2022-08-25T06:30:56.855Z,989.73
2022-08-25T06:32:00.186Z,989.73
2022-08-25T06:33:03.016Z,989.71
2022-08-25T06:34:05.819Z,989.72
2022-08-25T06:35:08.673Z,989.72
2022-08-25T06:36:11.497Z,989.73
2022-08-25T06:37:34.412Z,989.75
2022-08-25T06:38:51.607Z,989.75
2022-08-25T06:48:25.062Z,989.73
2022-08-25T06:48:25.546Z,989.74
2022-08-25T06:49:40.122Z,989.74
2022-08-25T06:50:29.264Z,989.66
2022-08-25T07:09:39.767Z,989.56
2022-08-25T07:10:48.643Z,989.56
2022-08-25T07:11:41.169Z,989.51
2022-08-25T07:12:50.087Z,989.52
2022-08-25T07:13:46.097Z,989.53
2022-08-25T07:15:20.824Z,989.51
2022-08-25T07:15:50.056Z,989.5
2022-08-25T07:16:50.759Z,989.51
2022-08-25T07:18:23.427Z,989.51
2022-08-25T07:21:57.948Z,989.48
2022-08-25T07:21:58.329Z,989.47
2022-08-25T07:23:01.908Z,989.45
2022-08-25T07:24:07.611Z,989.47
2022-08-25T07:25:03.510Z,989.43
2022-08-25T07:26:38.067Z,989.5
2022-08-25T07:27:06.711Z,989.46
2022-08-25T07:28:10.711Z,989.5
2022-08-25T07:29:10.057Z,989.51
2022-08-25T07:30:13.050Z,989.5
2022-08-25T07:31:16.113Z,989.46
2022-08-25T07:32:21.369Z,989.46
2022-08-25T07:33:20.708Z,989.43
2022-08-25T07:34:21.463Z,989.41
2022-08-25T07:35:37.991Z,989.41
2022-08-25T07:36:28.153Z,989.43
2022-08-25T07:51:28.581Z,989.24
2022-08-25T07:52:27.900Z,989.28
2022-08-25T07:53:30.694Z,989.28
2022-08-25T07:54:35.735Z,989.29
2022-08-25T07:55:33.785Z,989.32
2022-08-25T07:56:36.819Z,989.36
2022-08-25T07:57:39.641Z,989.37
2022-08-25T07:58:44.391Z,989.33
2022-08-25T07:59:44.477Z,989.31
2022-08-25T08:00:47.270Z,989.25
2022-08-25T08:01:50.599Z,989.3
2022-08-25T08:02:54.519Z,989.32
2022-08-25T08:03:54.861Z,989.33
2022-08-25T08:04:54.408Z,989.35
2022-08-25T08:05:57.212Z,989.29
2022-08-25T08:07:02.479Z,989.34
2022-08-25T08:08:01.966Z,989.28
2022-08-25T08:09:03.544Z,989.28
2022-08-25T08:11:05.829Z,989.33
2022-08-25T08:11:12.486Z,989.31
2022-08-25T08:12:11.946Z,989.29
2022-08-25T08:13:26.908Z,989.28
2022-08-25T08:14:20.582Z,989.3
2022-08-25T08:15:16.456Z,989.3
2022-08-25T08:16:20.200Z,989.28
2022-08-25T08:17:19.895Z,989.27
2022-08-25T08:18:22.709Z,989.28
2022-08-25T08:19:26.207Z,989.24
2022-08-25T08:20:25.593Z,989.27
2022-08-25T08:21:28.406Z,989.23
2022-08-25T08:22:31.260Z,989.21
2022-08-25T08:23:34.224Z,989.19
2022-08-25T08:24:57.074Z,989.19
2022-08-25T08:25:39.081Z,989.18
2022-08-25T08:27:00.197Z,989.21
2022-08-25T08:27:43.936Z,989.14
2022-08-25T08:28:43.281Z,989.18
2022-08-25T08:29:46.546Z,989.18
2022-08-25T08:30:55.869Z,989.15
2022-08-25T08:31:52.750Z,989.16
2022-08-25T08:33:13.353Z,989.14
2022-08-25T08:33:52.303Z,989.15
2022-08-25T08:34:55.791Z,989.08
2022-08-25T08:35:55.810Z,989.1
2022-08-25T08:36:55.157Z,989.02
2022-08-25T08:37:57.966Z,989.09
2022-08-25T08:39:01.676Z,989.07
2022-08-25T08:40:04.139Z,989.07
2022-08-25T08:41:03.749Z,989.05
2022-08-25T08:42:16.725Z,989
2022-08-25T08:43:19.225Z,989.01
2022-08-25T08:44:13.168Z,989
2022-08-25T08:45:12.477Z,988.97
2022-08-25T08:46:15.488Z,988.94
2022-08-25T08:47:18.413Z,988.94
2022-08-25T08:48:21.202Z,988.98
2022-08-25T08:49:28.904Z,989.02
2022-08-25T08:50:33.879Z,988.99
2022-08-25T08:51:33.688Z,988.97
2022-08-25T08:52:30.007Z,988.94
2022-08-25T08:53:34.826Z,988.97
2022-08-25T08:54:36.392Z,988.96
2022-08-25T08:55:37.415Z,988.96
2022-08-25T08:56:36.765Z,988.94
2022-08-25T08:57:39.956Z,988.99
2022-08-25T08:58:44.703Z,989
2022-08-25T08:59:44.220Z,988.96
2022-08-25T09:00:52.799Z,988.97
2022-08-25T09:01:54.923Z,989.01
2022-08-25T09:02:52.560Z,988.96
2022-08-25T09:03:55.685Z,988.93
2022-08-25T09:04:55.025Z,988.93
2022-08-25T09:05:57.845Z,988.93
2022-08-25T09:07:01.449Z,988.86
2022-08-25T09:08:00.786Z,988.84
2022-08-25T09:09:07.518Z,988.83
2022-08-25T09:10:07.259Z,988.83
2022-08-25T09:11:10.684Z,988.83
2022-08-25T09:12:18.130Z,988.81
2022-08-25T09:13:15.939Z,988.75
2022-08-25T09:14:15.270Z,988.77
2022-08-25T09:15:20.332Z,988.76
2022-08-25T09:16:35.128Z,988.76
2022-08-25T09:17:21.039Z,988.72
2022-08-25T09:18:23.813Z,988.77
2022-08-25T09:19:26.603Z,988.78
2022-08-25T09:20:29.793Z,988.76
2022-08-25T09:21:32.751Z,988.76
2022-08-25T09:22:37.096Z,988.76
2022-08-25T09:23:36.490Z,988.71
2022-08-25T09:24:41.338Z,988.69
2022-08-25T09:25:54.620Z,988.71
2022-08-25T09:26:44.738Z,988.76
2022-08-25T09:27:44.152Z,988.72
2022-08-25T09:28:51.668Z,988.76
2022-08-25T09:29:47.519Z,988.78
2022-08-25T09:30:50.603Z,988.72
2022-08-25T09:31:53.451Z,988.68
2022-08-25T09:32:57.017Z,988.68
2022-08-25T09:33:56.385Z,988.65
2022-08-25T09:34:59.192Z,988.66
2022-08-25T09:36:09.473Z,988.68
2022-08-25T09:37:05.331Z,988.68
2022-08-25T09:38:08.203Z,988.69
2022-08-25T09:39:11.026Z,988.71
2022-08-25T09:40:14.322Z,988.68
2022-08-25T09:41:21.641Z,988.71
2022-08-25T09:42:24.232Z,988.68
2022-08-25T09:43:20.081Z,988.65
2022-08-25T09:44:22.903Z,988.66
2022-08-25T09:45:25.695Z,988.65
2022-08-25T09:46:29.441Z,988.66
2022-08-25T09:47:28.923Z,988.61
2022-08-25T09:48:31.746Z,988.61
2022-08-25T09:49:34.708Z,988.58
2022-08-25T09:50:38.192Z,988.6
2022-08-25T09:51:43.623Z,988.59
2022-08-25T09:52:42.731Z,988.58
2022-08-25T09:53:42.409Z,988.57
2022-08-25T09:54:47.989Z,988.58
2022-08-25T09:55:47.305Z,988.55
2022-08-25T09:56:50.098Z,988.6
2022-08-25T09:57:53.504Z,988.55
2022-08-25T09:59:03.557Z,988.51
2022-08-25T09:59:59.509Z,988.58
2022-08-25T10:01:02.296Z,988.54
2022-08-25T10:02:05.727Z,988.49
2022-08-25T10:03:08.402Z,988.46
2022-08-25T10:04:21.502Z,988.45
2022-08-25T10:05:11.269Z,988.43
2022-08-25T10:06:14.087Z,988.41
2022-08-25T10:07:14.067Z,988.42
2022-08-25T10:08:25.109Z,988.39
2022-08-25T10:09:18.077Z,988.36
2022-08-25T10:10:21.052Z,988.41
2022-08-25T10:11:23.885Z,988.39
2022-08-25T10:12:28.415Z,988.45
2022-08-25T10:13:28.018Z,988.41
2022-08-25T10:14:30.832Z,988.41
2022-08-25T10:15:33.930Z,988.39
2022-08-25T10:16:37.383Z,988.34
2022-08-25T10:17:36.897Z,988.31
2022-08-25T10:18:38.558Z,988.33
2022-08-25T10:19:41.354Z,988.28
2022-08-25T10:20:45.260Z,988.25
2022-08-25T10:21:45.728Z,988.21
2022-08-25T10:22:51.629Z,988.26
2022-08-25T10:23:47.836Z,988.19
2022-08-25T10:24:50.616Z,988.21
2022-08-25T10:26:04.747Z,988.2
2022-08-25T10:26:54.471Z,988.15
2022-08-25T10:27:57.274Z,988.17
2022-08-25T10:29:00.222Z,988.18
2022-08-25T10:30:03.787Z,988.17
2022-08-25T10:31:03.637Z,988.14
2022-08-25T10:32:12.599Z,988.19
2022-08-25T10:33:09.530Z,988.18
2022-08-25T10:34:09.239Z,988.15
2022-08-25T10:35:12.492Z,988.13
2022-08-25T10:36:21.517Z,988.03
2022-08-25T10:37:18.081Z,988.01
2022-08-25T10:38:22.261Z,987.99
2022-08-25T10:39:37.129Z,988.04
2022-08-25T10:40:26.799Z,988.02
2022-08-25T10:41:26.409Z,988.02
2022-08-25T10:42:29.450Z,987.99
2022-08-25T10:43:32.266Z,987.99
2022-08-25T10:44:35.131Z,987.97
2022-08-25T10:45:37.960Z,987.98
2022-08-25T10:46:43.545Z,987.96
2022-08-25T10:47:43.128Z,987.96
2022-08-25T10:48:45.921Z,987.95
2022-08-25T10:49:50.396Z,987.92
2022-08-25T10:50:49.723Z,987.96
2022-08-25T10:51:51.730Z,987.94
2022-08-25T10:52:51.117Z,987.89
2022-08-25T10:53:56.867Z,987.87
2022-08-25T10:54:56.473Z,987.87
2022-08-25T10:55:59.325Z,987.84
2022-08-25T10:57:02.373Z,987.79
2022-08-25T10:58:06.211Z,987.86
2022-08-25T10:59:09.360Z,987.86
2022-08-25T11:00:08.724Z,987.84
2022-08-25T11:01:11.967Z,987.8
2022-08-25T11:02:14.810Z,987.79
2022-08-25T11:03:18.116Z,987.75
2022-08-25T11:04:28.883Z,987.77
2022-08-25T11:05:25.324Z,987.76
2022-08-25T11:06:24.761Z,987.8
2022-08-25T11:07:27.578Z,987.7
2022-08-25T11:08:30.367Z,987.75
2022-08-25T11:09:36.810Z,987.7
2022-08-25T11:10:34.697Z,987.73
2022-08-25T11:11:37.855Z,987.71
2022-08-25T11:12:43.373Z,987.7
2022-08-25T11:13:46.978Z,987.69
2022-08-25T11:14:42.823Z,987.69
2022-08-25T11:16:18.646Z,987.72
2022-08-25T11:16:49.056Z,987.7
2022-08-25T11:17:50.785Z,987.64
2022-08-25T11:18:51.086Z,987.69
2022-08-25T11:19:50.397Z,987.67
2022-08-25T11:20:53.328Z,987.68
2022-08-25T11:21:56.742Z,987.64
2022-08-25T11:22:59.901Z,987.67
2022-08-25T11:24:03.532Z,987.68
2022-08-25T11:25:04.455Z,987.67
2022-08-25T11:26:03.780Z,987.63
2022-08-25T11:27:06.623Z,987.65
2022-08-25T11:28:11.221Z,987.61
2022-08-25T11:29:12.592Z,987.51
2022-08-25T11:30:13.597Z,987.58
2022-08-25T11:31:13.740Z,987.56
2022-08-25T11:32:13.074Z,987.54
2022-08-25T11:33:15.851Z,987.52
2022-08-25T11:34:19.984Z,987.51
2022-08-25T11:35:19.293Z,987.51
2022-08-25T11:36:30.040Z,987.54
2022-08-25T11:37:22.669Z,987.45
2022-08-25T11:38:27.285Z,987.49
2022-08-25T11:39:34.963Z,987.52
2022-08-25T11:40:31.439Z,987.48
2022-08-25T11:41:34.110Z,987.43
2022-08-25T11:42:37.542Z,987.4
2022-08-25T11:43:41.274Z,987.39
2022-08-25T11:44:55.491Z,987.36
2022-08-25T11:45:41.995Z,987.36
2022-08-25T11:46:42.942Z,987.35
2022-08-25T11:47:46.189Z,987.37
2022-08-25T11:48:49.016Z,987.41
2022-08-25T11:49:51.824Z,987.43
2022-08-25T11:50:54.701Z,987.43
2022-08-25T11:52:03.833Z,987.41
2022-08-25T11:53:00.948Z,987.4
2022-08-25T11:54:00.278Z,987.44
2022-08-25T11:55:05.699Z,987.41
2022-08-25T11:56:05.013Z,987.39
2022-08-25T11:57:07.811Z,987.38
2022-08-25T11:58:11.123Z,987.39
2022-08-25T11:59:15.841Z,987.38
2022-08-25T12:00:15.856Z,987.32
2022-08-25T12:01:20.570Z,987.36
2022-08-25T12:02:20.055Z,987.37
2022-08-25T12:03:22.851Z,987.33
2022-08-25T12:04:31.147Z,987.32
2022-08-25T12:05:27.253Z,987.33
2022-08-25T12:06:30.183Z,987.26
2022-08-25T12:07:32.973Z,987.35
2022-08-25T12:08:35.747Z,987.28
2022-08-25T12:09:38.525Z,987.31
2022-08-25T12:10:41.281Z,987.35
2022-08-25T12:11:44.104Z,987.36
2022-08-25T12:12:46.906Z,987.34
2022-08-25T12:13:51.084Z,987.32
2022-08-25T12:14:50.400Z,987.34
2022-08-25T12:15:53.465Z,987.28
2022-08-25T12:16:56.914Z,987.29
2022-08-25T12:17:56.356Z,987.27
2022-08-25T12:18:59.848Z,987.27
2022-08-25T12:19:59.140Z,987.25
2022-08-25T12:21:03.499Z,987.25
2022-08-25T12:22:04.449Z,987.26
2022-08-25T12:23:03.846Z,987.28
2022-08-25T12:24:06.794Z,987.26
2022-08-25T12:25:09.568Z,987.26
2022-08-25T12:26:12.385Z,987.22
2022-08-25T12:27:15.184Z,987.2
2022-08-25T12:28:19.777Z,987.18
2022-08-25T12:29:22.611Z,987.24
2022-08-25T12:30:22.012Z,987.18
2022-08-25T12:31:24.812Z,987.16
2022-08-25T12:32:27.955Z,987.17
2022-08-25T12:33:30.762Z,987.13
2022-08-25T12:34:33.564Z,987.13
2022-08-25T12:35:37.234Z,987.1
2022-08-25T12:36:37.060Z,987.09
2022-08-25T12:37:40.115Z,987.13
2022-08-25T12:38:52.528Z,987.1
2022-08-25T12:39:44.967Z,987.12
2022-08-25T12:40:47.776Z,987.13
2022-08-25T12:41:52.531Z,987.1
2022-08-25T12:42:51.908Z,987.09
2022-08-25T12:43:54.853Z,987.13
2022-08-25T12:44:58.036Z,987.11
2022-08-25T12:46:03.323Z,987.1
2022-08-25T12:47:04.902Z,987.06
2022-08-25T12:48:06.450Z,987.06
2022-08-25T12:49:09.227Z,987.06
2022-08-25T12:50:12.007Z,987.04
2022-08-25T12:51:14.800Z,987.04
2022-08-25T12:52:17.592Z,987.01
2022-08-25T12:53:20.877Z,987.07
2022-08-25T12:54:23.847Z,987.04
2022-08-25T12:55:26.641Z,987.03
2022-08-25T12:56:30.192Z,987.02
2022-08-25T12:57:30.292Z,987.04
2022-08-25T12:59:01.198Z,987
2022-08-25T12:59:32.995Z,986.99
2022-08-25T13:00:35.760Z,987.02
2022-08-25T13:01:39.260Z,986.99
2022-08-25T13:02:39.368Z,987.04
2022-08-25T13:04:42.832Z,987.05
2022-08-25T13:05:43.096Z,987.08
2022-08-25T13:06:45.909Z,987
2022-08-25T13:07:48.713Z,987
2022-08-25T13:08:51.968Z,986.96
2022-08-25T13:09:54.763Z,986.96
2022-08-25T13:10:57.580Z,986.97
2022-08-25T13:12:02.956Z,986.93
2022-08-25T13:13:04.547Z,986.92
2022-08-25T13:14:03.878Z,986.94
2022-08-25T13:15:06.875Z,986.92
2022-08-25T13:16:09.950Z,986.88
2022-08-25T13:17:10.475Z,986.9
2022-08-25T13:18:13.794Z,986.91
2022-08-25T13:19:18.795Z,986.93
2022-08-25T13:20:19.386Z,986.89
2022-08-25T13:21:20.419Z,986.96
2022-08-25T13:22:19.724Z,986.94
2022-08-25T13:23:22.880Z,986.89
2022-08-25T13:24:26.205Z,986.89
2022-08-25T14:29:41.584Z,986.33
2022-08-25T14:30:37.498Z,986.31
2022-08-25T14:31:40.737Z,986.26
2022-08-25T14:32:44.337Z,986.27
2022-08-25T14:33:50.451Z,986.27
2022-08-25T14:34:49.847Z,986.23
2022-08-25T14:35:55.177Z,986.27
2022-08-25T14:36:54.592Z,986.26
2022-08-25T14:37:57.446Z,986.24
2022-08-25T14:39:01.841Z,986.24
2022-08-25T14:40:01.947Z,986.23
2022-08-25T14:41:02.433Z,986.27
2022-08-25T14:42:01.942Z,986.31
2022-08-25T14:43:10.608Z,986.3
2022-08-25T14:44:07.212Z,986.3
2022-08-25T14:45:10.390Z,986.3
2022-08-25T14:46:16.144Z,986.28
2022-08-25T14:47:15.497Z,986.28
2022-08-25T14:48:18.439Z,986.27
2022-08-25T14:49:25.441Z,986.26
2022-08-25T14:50:21.348Z,986.22
2022-08-25T14:51:25.049Z,986.25
2022-08-25T14:52:24.469Z,986.26
2022-08-25T14:53:29.170Z,986.25
2022-08-25T14:54:29.462Z,986.27
2022-08-25T14:55:32.650Z,986.27
2022-08-25T14:56:31.992Z,986.25
2022-08-25T14:57:34.812Z,986.24
2022-08-25T14:58:54.452Z,986.2
2022-08-25T14:59:43.631Z,986.19
2022-08-25T15:00:45.102Z,986.17
2022-08-25T15:01:43.893Z,986.16
2022-08-25T15:02:47.021Z,986.13
2022-08-25T15:03:50.379Z,986.13
2022-08-25T15:04:52.487Z,986.14
2022-08-25T15:05:52.088Z,986.15
2022-08-25T15:06:54.927Z,986.13
2022-08-25T15:07:58.959Z,986.07
2022-08-25T15:08:58.644Z,986.1
2022-08-25T15:10:01.452Z,986.11
2022-08-25T15:11:09.941Z,986.06
2022-08-25T15:12:08.829Z,986.03
2022-08-25T15:13:09.801Z,985.99
2022-08-25T15:14:12.332Z,986.02
2022-08-25T15:15:13.510Z,986.03
2022-08-25T15:16:13.157Z,985.98
2022-08-25T15:17:16.012Z,985.94
2022-08-25T15:18:20.675Z,985.97
2022-08-25T15:19:20.027Z,986.01
2022-08-25T15:20:23.170Z,985.99
2022-08-25T15:21:25.980Z,985.94
2022-08-25T15:22:28.798Z,985.96
2022-08-25T15:23:30.445Z,985.95
2022-08-25T15:24:39.624Z,985.99
2022-08-25T15:25:35.528Z,985.92
2022-08-25T15:26:40.147Z,985.96
2022-08-25T15:27:39.717Z,985.94
2022-08-25T15:28:44.605Z,985.93
2022-08-25T15:29:44.866Z,985.94
2022-08-25T15:30:46.309Z,985.93
2022-08-25T15:31:47.116Z,985.94
2022-08-25T15:32:49.109Z,985.92
2022-08-25T15:33:52.892Z,985.94
2022-08-25T15:34:50.328Z,985.92
2022-08-25T15:35:53.164Z,985.91
2022-08-25T15:36:53.743Z,985.94
2022-08-25T15:37:56.668Z,985.91
2022-08-25T15:39:00.184Z,985.92
2022-08-25T15:39:59.927Z,985.93
2022-08-25T15:41:03.387Z,985.89
2022-08-25T15:42:06.237Z,985.89
2022-08-25T15:43:09.096Z,985.9
2022-08-25T15:44:10.383Z,985.85
2022-08-25T15:45:09.733Z,985.87
2022-08-25T15:46:12.557Z,985.86
2022-08-25T15:47:17.234Z,985.81
2022-08-25T15:48:16.627Z,985.79
2022-08-25T15:49:24.374Z,985.8
2022-08-25T15:50:26.375Z,985.79
2022-08-25T15:51:22.473Z,985.77
2022-08-25T15:52:48.769Z,985.78
2022-08-25T15:53:27.375Z,985.8
2022-08-25T15:54:30.769Z,985.77
2022-08-25T15:55:33.609Z,985.77
2022-08-25T15:56:37.459Z,985.78
2022-08-25T15:57:39.134Z,985.77
2022-08-25T15:58:50.335Z,985.73
2022-08-25T15:59:41.895Z,985.74
2022-08-25T16:00:42.604Z,985.72
2022-08-25T16:01:43.981Z,985.74
2022-08-25T16:02:46.862Z,985.75
2022-08-25T16:03:46.240Z,985.77
2022-08-25T16:04:49.031Z,985.75
2022-08-25T16:05:52.380Z,985.76
2022-08-25T16:06:55.970Z,985.74
2022-08-25T16:07:55.452Z,985.77
2022-08-25T16:08:58.750Z,985.76
2022-08-25T16:10:03.882Z,985.78
2022-08-25T16:11:03.645Z,985.79
2022-08-25T16:12:10.160Z,985.75
2022-08-25T16:13:09.011Z,985.76
2022-08-25T16:14:08.352Z,985.76
2022-08-25T16:15:12.728Z,985.75
2022-08-25T16:16:12.493Z,985.77
2022-08-25T16:17:16.256Z,985.76
2022-08-25T16:18:17.147Z,985.73
2022-08-25T16:19:16.499Z,985.75